createdAt,value
2019-06-20T00:01:49.001Z,79.21
2019-06-20T00:04:18.605Z,80.56
2019-06-20T00:06:48.310Z,79.82
2019-06-20T00:09:17.831Z,81.00
2019-06-20T00:11:47.479Z,81.20
2019-06-20T00:14:17.177Z,81.05
2019-06-20T00:16:46.793Z,81.11
2019-06-20T00:19:16.520Z,81.08
2019-06-20T00:21:46.166Z,78.89
2019-06-20T00:24:15.706Z,80.00
2019-06-20T00:26:45.233Z,79.76
2019-06-20T00:29:14.773Z,79.91
2019-06-20T00:31:44.691Z,81.95
2019-06-20T00:34:14.257Z,81.62
2019-06-20T00:36:43.846Z,81.48
2019-06-20T00:39:13.486Z,82.04
2019-06-20T00:41:43.445Z,81.91
2019-06-20T00:44:13.250Z,81.74
2019-06-20T00:46:43.043Z,80.67
2019-06-20T00:49:12.879Z,80.65
2019-06-20T00:51:42.452Z,81.43
2019-06-20T00:54:11.993Z,82.21
2019-06-20T00:56:41.588Z,82.27
2019-06-20T00:59:11.181Z,82.46
2019-06-20T01:01:41.049Z,82.45
2019-06-20T01:04:11.015Z,82.60
2019-06-20T01:06:40.552Z,83.16
2019-06-20T01:09:10.838Z,83.02
2019-06-20T01:11:40.454Z,84.46
2019-06-20T01:14:10.209Z,85.58
2019-06-20T01:16:39.851Z,84.76
2019-06-20T01:19:09.586Z,85.21
2019-06-20T01:21:39.234Z,84.30
2019-06-20T01:24:09.103Z,85.56
2019-06-20T01:26:39.492Z,85.16
2019-06-20T01:29:09.076Z,85.66
2019-06-20T01:31:38.640Z,85.38
2019-06-20T01:34:08.326Z,85.27
2019-06-20T01:36:38.005Z,85.79
2019-06-20T01:39:08.853Z,86.22
2019-06-20T01:41:38.803Z,86.03
2019-06-20T01:44:08.391Z,86.71
2019-06-20T01:46:38.065Z,86.17
2019-06-20T01:49:08.084Z,85.60
2019-06-20T01:51:37.671Z,84.77
2019-06-20T01:54:07.318Z,83.87
2019-06-20T01:56:36.894Z,85.08
2019-06-20T01:59:06.672Z,85.10
2019-06-20T02:01:36.332Z,84.63
2019-06-20T02:04:06.114Z,84.42
2019-06-20T02:06:36.560Z,85.43
2019-06-20T02:09:09.039Z,85.69
2019-06-20T02:11:40.007Z,86.42
2019-06-20T02:14:10.219Z,87.00
2019-06-20T02:16:39.883Z,88.20
2019-06-20T02:19:09.525Z,87.23
2019-06-20T02:21:39.150Z,87.25
2019-06-20T02:24:08.722Z,87.28
2019-06-20T02:26:38.492Z,87.16
2019-06-20T02:29:08.068Z,87.79
2019-06-20T02:31:38.040Z,87.55
2019-06-20T02:34:08.936Z,86.70
2019-06-20T02:36:38.461Z,86.58
2019-06-20T02:39:08.804Z,86.58
2019-06-20T02:41:38.469Z,85.83
2019-06-20T02:44:28.411Z,86.84
2019-06-20T02:46:39.488Z,86.88
2019-06-20T02:49:09.101Z,86.44
2019-06-20T02:51:39.075Z,86.45
2019-06-20T02:54:08.570Z,86.35
2019-06-20T02:56:38.715Z,85.83
2019-06-20T02:59:08.345Z,85.72
2019-06-20T03:01:37.984Z,85.46
2019-06-20T03:04:07.674Z,84.92
2019-06-20T03:06:37.264Z,84.32
2019-06-20T03:09:07.988Z,85.06
2019-06-20T03:11:37.630Z,85.41
2019-06-20T03:14:09.833Z,85.85
2019-06-20T03:16:39.309Z,86.23
2019-06-20T03:19:08.991Z,87.17
2019-06-20T03:21:39.005Z,86.26
2019-06-20T03:24:08.618Z,85.51
2019-06-20T03:26:38.258Z,84.99
2019-06-20T03:29:07.949Z,85.19
2019-06-20T03:31:37.585Z,84.19
2019-06-20T03:34:07.261Z,83.85
2019-06-20T03:36:36.851Z,83.19
2019-06-20T03:39:08.278Z,82.72
2019-06-20T03:41:37.995Z,82.49
2019-06-20T03:44:07.665Z,82.51
2019-06-20T03:46:37.213Z,82.97
2019-06-20T03:49:06.794Z,83.11
2019-06-20T03:51:36.381Z,82.82
2019-06-20T03:54:06.284Z,81.91
2019-06-20T03:56:35.920Z,81.62
2019-06-20T03:59:05.653Z,82.04
2019-06-20T04:01:35.167Z,82.43
2019-06-20T04:04:05.206Z,82.06
2019-06-20T04:06:35.794Z,81.78
2019-06-20T04:09:07.097Z,81.77
2019-06-20T04:11:36.639Z,80.85
2019-06-20T04:14:06.244Z,82.04
2019-06-20T04:16:35.802Z,82.21
2019-06-20T04:19:05.550Z,81.88
2019-06-20T04:21:35.060Z,80.71
2019-06-20T04:24:04.646Z,79.72
2019-06-20T04:26:35.667Z,79.61
2019-06-20T04:29:05.274Z,79.28
2019-06-20T04:31:34.817Z,79.16
2019-06-20T04:34:04.508Z,78.30
2019-06-20T04:36:34.067Z,79.36
2019-06-20T04:39:18.373Z,78.84
2019-06-20T04:41:36.330Z,77.90
2019-06-20T04:44:06.059Z,78.10
2019-06-20T04:46:52.716Z,79.25
2019-06-20T04:49:22.245Z,78.32
2019-06-20T04:51:51.792Z,78.18
2019-06-20T04:54:21.400Z,77.97
2019-06-20T04:56:50.971Z,77.57
2019-06-20T04:59:20.499Z,76.58
2019-06-20T05:01:50.228Z,75.93
2019-06-20T05:04:19.852Z,76.54
2019-06-20T05:06:54.124Z,76.08
2019-06-20T05:09:23.773Z,75.79
2019-06-20T05:11:53.289Z,77.14
2019-06-20T05:14:22.873Z,76.40
2019-06-20T05:16:52.369Z,75.48
2019-06-20T05:19:22.372Z,75.94
2019-06-20T05:21:52.023Z,75.68
2019-06-20T05:24:21.604Z,75.78
2019-06-20T05:26:51.276Z,76.54
2019-06-20T05:29:20.881Z,77.27
2019-06-20T05:31:50.415Z,77.46
2019-06-20T05:34:19.895Z,77.83
2019-06-20T05:36:49.909Z,76.25
2019-06-20T05:39:19.454Z,75.52
2019-06-20T05:41:48.959Z,73.85
2019-06-20T05:44:18.772Z,72.49
2019-06-20T05:46:48.304Z,71.97
2019-06-20T05:49:18.966Z,73.90
2019-06-20T05:51:48.642Z,75.02
2019-06-20T05:54:18.151Z,73.81
2019-06-20T05:56:47.739Z,73.61
2019-06-20T05:59:17.379Z,71.89
2019-06-20T06:01:47.069Z,72.04
2019-06-20T06:04:16.931Z,71.65
2019-06-20T06:06:47.574Z,69.93
2019-06-20T06:09:17.526Z,69.87
2019-06-20T06:11:47.239Z,71.47
2019-06-20T06:14:16.900Z,72.50
2019-06-20T06:16:46.443Z,73.22
2019-06-20T06:19:16.184Z,72.48
2019-06-20T06:21:45.731Z,71.03
2019-06-20T06:24:15.292Z,71.30
2019-06-20T06:26:44.930Z,71.76
2019-06-20T06:29:16.708Z,70.76
2019-06-20T06:31:47.197Z,69.56
2019-06-20T06:34:16.843Z,71.52
2019-06-20T06:36:46.453Z,72.66
2019-06-20T06:39:15.957Z,74.26
2019-06-20T06:41:45.643Z,73.36
2019-06-20T06:44:15.201Z,72.48
2019-06-20T06:46:53.197Z,70.56
2019-06-20T06:49:15.962Z,68.93
2019-06-20T06:51:45.884Z,68.05
2019-06-20T06:54:15.472Z,67.49
2019-06-20T06:56:45.107Z,68.24
2019-06-20T06:59:14.670Z,66.82
2019-06-20T07:01:44.802Z,67.39
2019-06-20T07:04:14.322Z,67.74
2019-06-20T07:06:43.938Z,67.03
2019-06-20T07:09:13.535Z,66.78
2019-06-20T07:11:43.062Z,64.98
2019-06-20T07:14:12.747Z,66.07
2019-06-20T07:16:42.421Z,65.41
2019-06-20T07:19:12.101Z,64.99
2019-06-20T07:21:41.721Z,63.81
2019-06-20T07:24:11.789Z,64.66
2019-06-20T07:26:41.308Z,65.33
2019-06-20T07:29:10.919Z,65.93
2019-06-20T07:31:40.464Z,66.15
2019-06-20T07:34:10.042Z,66.56
2019-06-20T07:36:40.059Z,67.11
2019-06-20T07:39:10.634Z,66.76
2019-06-20T07:41:40.267Z,67.94
2019-06-20T07:44:10.077Z,68.30
2019-06-20T07:46:39.580Z,69.14
2019-06-20T07:49:09.257Z,68.87
2019-06-20T07:51:38.967Z,68.70
2019-06-20T07:54:08.611Z,68.17
2019-06-20T07:56:38.208Z,68.32
2019-06-20T07:59:07.891Z,68.70
2019-06-20T08:01:37.511Z,69.20
2019-06-20T08:04:07.209Z,68.40
2019-06-20T08:06:36.864Z,67.68
2019-06-20T08:09:09.116Z,67.86
2019-06-20T08:11:38.781Z,67.10
2019-06-20T08:14:08.468Z,66.26
2019-06-20T08:16:38.058Z,67.33
2019-06-20T08:19:07.726Z,67.12
2019-06-20T08:21:37.965Z,67.28
2019-06-20T08:24:07.620Z,66.42
2019-06-20T08:26:37.210Z,65.26
2019-06-20T08:29:18.698Z,65.52
2019-06-20T08:31:38.262Z,66.39
2019-06-20T08:34:07.973Z,64.86
2019-06-20T08:36:37.610Z,64.44
2019-06-20T08:39:10.317Z,64.44
2019-06-20T08:41:40.021Z,65.14
2019-06-20T08:44:09.783Z,65.35
2019-06-20T08:46:39.418Z,63.97
2019-06-20T08:49:09.104Z,62.72
2019-06-20T08:51:39.217Z,62.63
2019-06-20T08:54:08.996Z,60.67
2019-06-20T08:56:38.576Z,60.22
2019-06-20T08:59:23.205Z,62.30
2019-06-20T09:01:39.677Z,62.47
2019-06-20T09:04:09.285Z,61.27
2019-06-20T09:06:39.565Z,60.09
2019-06-20T09:09:09.811Z,58.03
2019-06-20T09:11:39.342Z,57.77
2019-06-20T09:14:08.965Z,58.01
2019-06-20T09:16:38.472Z,59.50
2019-06-20T09:19:08.029Z,61.79
2019-06-20T09:21:37.588Z,61.17
2019-06-20T09:24:07.339Z,60.92
2019-06-20T09:26:36.951Z,61.23
2019-06-20T09:29:07.662Z,60.95
2019-06-20T09:31:37.198Z,60.71
2019-06-20T09:34:06.848Z,59.51
2019-06-20T09:36:36.478Z,57.64
2019-06-20T09:39:08.084Z,56.46
2019-06-20T09:41:37.641Z,56.08
2019-06-20T09:44:07.308Z,55.53
2019-06-20T09:46:36.879Z,55.01
2019-06-20T09:49:06.423Z,55.04
2019-06-20T09:51:39.162Z,55.71
2019-06-20T09:54:09.282Z,56.02
2019-06-20T09:56:38.811Z,55.14
2019-06-20T09:59:09.107Z,52.86
2019-06-20T10:01:38.727Z,50.62
2019-06-20T10:04:08.466Z,49.77
2019-06-20T10:06:43.446Z,50.53
2019-06-20T10:09:13.035Z,51.54
2019-06-20T10:11:42.639Z,50.64
2019-06-20T10:14:13.681Z,49.84
2019-06-20T10:16:47.202Z,49.16
2019-06-20T10:19:14.627Z,49.04
2019-06-20T10:21:46.746Z,49.08
2019-06-20T10:24:17.616Z,48.23
2019-06-20T10:26:48.033Z,48.04
2019-06-20T10:29:19.245Z,46.92
2019-06-20T10:31:49.049Z,45.70
2019-06-20T10:34:18.758Z,46.14
2019-06-20T10:36:48.520Z,45.93
2019-06-20T10:39:18.139Z,45.95
2019-06-20T10:41:48.504Z,45.59
2019-06-20T10:44:18.140Z,44.40
2019-06-20T10:46:49.140Z,42.80
2019-06-20T10:49:18.774Z,42.03
2019-06-20T10:51:49.556Z,42.59
2019-06-20T10:54:19.203Z,43.05
2019-06-20T10:56:48.929Z,43.45
2019-06-20T10:59:18.664Z,42.69
2019-06-20T11:01:48.431Z,41.81
2019-06-20T11:04:18.293Z,41.93
2019-06-20T11:06:49.834Z,42.74
2019-06-20T11:09:20.684Z,44.29
2019-06-20T11:11:50.255Z,45.31
2019-06-20T11:14:19.944Z,45.59
2019-06-20T11:16:49.549Z,46.93
2019-06-20T11:19:19.269Z,47.26
2019-06-20T11:21:48.923Z,46.88
2019-06-20T11:24:18.500Z,44.73
2019-06-20T11:26:48.184Z,43.53
2019-06-20T11:29:18.250Z,43.44
2019-06-20T11:31:49.497Z,43.08
2019-06-20T11:34:19.107Z,43.08
2019-06-20T11:36:48.730Z,42.46
2019-06-20T11:39:18.306Z,41.37
2019-06-20T11:41:48.537Z,40.92
2019-06-20T11:44:18.504Z,40.96
2019-06-20T11:46:48.110Z,41.53
2019-06-20T11:49:17.672Z,43.02
2019-06-20T11:51:47.385Z,44.29
2019-06-20T11:54:17.026Z,44.40
2019-06-20T11:56:47.089Z,43.74
2019-06-20T11:59:17.200Z,43.22
2019-06-20T12:01:47.229Z,41.91
2019-06-20T12:04:17.156Z,41.64
2019-06-20T12:06:47.128Z,41.83
2019-06-20T12:09:16.796Z,41.47
2019-06-20T12:11:46.760Z,40.82
2019-06-20T12:14:16.405Z,40.45
2019-06-20T12:16:46.434Z,40.97
2019-06-20T12:19:16.167Z,40.91
2019-06-20T12:21:46.912Z,41.26
2019-06-20T12:24:16.495Z,41.02
2019-06-20T12:26:46.879Z,40.91
2019-06-20T12:29:16.793Z,39.77
2019-06-20T12:31:46.532Z,39.46
2019-06-20T12:34:16.133Z,38.57
2019-06-20T12:36:46.618Z,38.51
2019-06-20T12:39:16.447Z,38.50
2019-06-20T12:41:46.021Z,38.20
2019-06-20T12:44:16.512Z,39.11
2019-06-20T12:46:47.067Z,38.78
2019-06-20T12:49:16.674Z,39.28
2019-06-20T12:51:47.027Z,39.33
2019-06-20T12:54:16.931Z,39.11
2019-06-20T12:56:46.431Z,39.11
2019-06-20T12:59:16.092Z,39.84
2019-06-20T13:01:47.776Z,38.88
2019-06-20T13:04:18.500Z,38.79
2019-06-20T13:06:49.478Z,38.78
2019-06-20T13:09:19.180Z,39.02
2019-06-20T13:11:49.276Z,39.09
2019-06-20T13:14:19.216Z,38.84
2019-06-20T13:16:50.190Z,39.02
2019-06-20T13:19:19.879Z,39.44
2019-06-20T13:21:49.958Z,40.61
2019-06-20T13:24:19.595Z,40.85
2019-06-20T13:26:50.691Z,40.63
2019-06-20T13:29:20.333Z,40.61
2019-06-20T13:32:02.064Z,41.54
2019-06-20T13:34:21.281Z,42.20
2019-06-20T13:36:51.142Z,42.83
2019-06-20T13:39:21.113Z,43.31
2019-06-20T13:41:50.711Z,42.49
2019-06-20T13:44:21.668Z,41.79
2019-06-20T13:46:51.754Z,41.08
2019-06-20T13:49:21.382Z,41.58
2019-06-20T13:51:51.026Z,41.45
2019-06-20T13:54:20.589Z,41.28
2019-06-20T13:56:50.153Z,40.76
2019-06-20T13:59:19.884Z,41.09
2019-06-20T14:01:49.476Z,41.00
2019-06-20T14:04:19.169Z,41.26
2019-06-20T14:06:49.726Z,40.94
2019-06-20T14:09:19.467Z,41.14
2019-06-20T14:11:49.057Z,41.51
2019-06-20T14:14:18.627Z,41.38
2019-06-20T14:16:48.375Z,41.20
2019-06-20T14:19:17.918Z,40.46
2019-06-20T14:21:47.873Z,39.69
2019-06-20T14:24:17.420Z,39.51
2019-06-20T14:26:48.208Z,40.07
2019-06-20T14:29:17.960Z,40.42
2019-06-20T14:31:47.537Z,38.96
2019-06-20T14:34:17.629Z,38.26
2019-06-20T14:36:49.154Z,38.82
2019-06-20T14:39:18.483Z,39.03
2019-06-20T14:41:48.669Z,39.13
2019-06-20T14:44:18.604Z,38.80
2019-06-20T14:46:48.105Z,39.64
2019-06-20T14:49:17.690Z,40.95
2019-06-20T14:51:48.507Z,40.47
2019-06-20T14:54:19.773Z,40.07
2019-06-20T14:56:49.804Z,39.72
2019-06-20T14:59:19.867Z,39.10
2019-06-20T15:01:50.616Z,40.57
2019-06-20T15:04:20.250Z,39.69
2019-06-20T15:06:50.338Z,39.43
2019-06-20T15:09:20.276Z,39.55
2019-06-20T15:11:51.253Z,40.12
2019-06-20T15:14:21.051Z,40.03
2019-06-20T15:16:51.259Z,40.03
2019-06-20T15:19:21.231Z,40.25
2019-06-20T15:21:52.103Z,40.07
2019-06-20T15:24:21.702Z,40.09
2019-06-20T15:26:52.454Z,40.03
2019-06-20T15:29:22.735Z,40.76
2019-06-20T15:31:52.640Z,40.10
2019-06-20T15:34:22.345Z,40.29
2019-06-20T15:36:53.330Z,40.47
2019-06-20T15:39:23.252Z,41.25
2019-06-20T15:41:54.077Z,41.95
2019-06-20T15:44:24.105Z,42.06
2019-06-20T15:46:53.614Z,42.20
2019-06-20T15:49:23.146Z,42.42
2019-06-20T15:51:52.737Z,42.58
2019-06-20T15:54:24.515Z,42.95
2019-06-20T15:56:53.510Z,42.67
2019-06-20T15:59:23.221Z,41.87
2019-06-20T16:01:53.564Z,41.37
2019-06-20T16:04:23.070Z,41.94
2019-06-20T16:06:53.837Z,41.07
2019-06-20T16:09:23.410Z,40.88
2019-06-20T16:11:52.914Z,40.40
2019-06-20T16:14:22.457Z,39.68
2019-06-20T16:16:52.013Z,40.03
2019-06-20T16:19:21.627Z,40.09
2019-06-20T16:21:51.170Z,39.98
2019-06-20T16:24:20.779Z,41.02
2019-06-20T16:26:53.729Z,41.10
2019-06-20T16:29:23.831Z,41.28
2019-06-20T16:31:53.341Z,41.74
2019-06-20T16:34:23.005Z,42.58
2019-06-20T16:36:53.020Z,42.83
2019-06-20T16:39:22.633Z,42.74
2019-06-20T16:41:52.260Z,41.86
2019-06-20T16:44:21.995Z,42.35
2019-06-20T16:46:51.597Z,42.34
2019-06-20T16:49:21.557Z,43.98
2019-06-20T16:51:51.623Z,46.26
2019-06-20T16:54:21.115Z,48.78
2019-06-20T16:56:50.731Z,51.13
2019-06-20T16:59:20.425Z,51.43
2019-06-20T17:01:50.028Z,52.45
2019-06-20T17:04:19.547Z,52.10
2019-06-20T17:06:49.095Z,51.72
2019-06-20T17:09:18.675Z,52.68
2019-06-20T17:11:48.237Z,52.41
2019-06-20T17:14:17.972Z,52.42
2019-06-20T17:16:47.612Z,51.98
2019-06-20T17:19:17.256Z,53.49
2019-06-20T17:21:46.847Z,54.93
2019-06-20T17:24:16.415Z,56.83
2019-06-20T17:26:46.004Z,58.53
2019-06-20T17:29:15.655Z,59.88
2019-06-20T17:31:45.325Z,60.58
2019-06-20T17:34:15.004Z,61.55
2019-06-20T17:36:44.977Z,61.31
2019-06-20T17:39:14.628Z,60.58
2019-06-20T17:41:54.886Z,61.53
2019-06-20T17:44:15.448Z,61.36
2019-06-20T17:46:45.063Z,59.96
2019-06-20T17:49:14.669Z,60.11
2019-06-20T17:51:44.309Z,60.24
2019-06-20T17:54:13.837Z,59.48
2019-06-20T17:56:43.477Z,59.36
2019-06-20T17:59:13.260Z,60.17
2019-06-20T18:01:42.781Z,58.68
2019-06-20T18:04:13.955Z,57.73
2019-06-20T18:06:43.795Z,58.39
2019-06-20T18:09:13.398Z,57.98
2019-06-20T18:11:42.973Z,58.26
2019-06-20T18:14:12.915Z,58.17
2019-06-20T18:16:42.433Z,58.45
2019-06-20T18:19:12.059Z,58.68
2019-06-20T18:21:41.797Z,57.69
2019-06-20T18:24:11.396Z,57.64
2019-06-20T18:26:41.003Z,58.57
2019-06-20T18:29:10.623Z,58.41
2019-06-20T18:31:42.344Z,58.12
2019-06-20T18:34:11.472Z,58.70
2019-06-20T18:36:43.426Z,58.47
2019-06-20T18:39:12.699Z,59.58
2019-06-20T18:41:42.207Z,60.42
2019-06-20T18:44:12.533Z,61.38
2019-06-20T18:46:42.143Z,61.95
2019-06-20T18:49:11.775Z,60.56
2019-06-20T18:51:41.537Z,60.08
2019-06-20T18:54:11.134Z,60.00
2019-06-20T18:56:40.706Z,61.75
2019-06-20T18:59:10.279Z,60.05
2019-06-20T19:01:39.953Z,59.97
2019-06-20T19:04:09.715Z,59.53
2019-06-20T19:06:39.385Z,58.38
2019-06-20T19:09:10.488Z,58.12
2019-06-20T19:11:40.280Z,57.99
2019-06-20T19:14:12.586Z,58.55
2019-06-20T19:16:41.351Z,57.80
2019-06-20T19:19:10.870Z,58.13
2019-06-20T19:21:40.768Z,56.94
2019-06-20T19:24:10.288Z,56.97
2019-06-20T19:26:40.168Z,58.33
2019-06-20T19:29:09.888Z,58.06
2019-06-20T19:31:39.598Z,58.85
2019-06-20T19:34:09.286Z,58.20
2019-06-20T19:36:38.818Z,58.06
2019-06-20T19:39:09.075Z,58.37
2019-06-20T19:41:38.596Z,59.57
2019-06-20T19:44:08.618Z,62.94
2019-06-20T19:46:38.207Z,64.78
2019-06-20T19:49:07.947Z,65.65
2019-06-20T19:51:37.623Z,65.91
2019-06-20T19:54:07.740Z,66.67
2019-06-20T19:56:37.424Z,67.00
2019-06-20T19:59:07.028Z,67.59
2019-06-20T20:01:36.913Z,68.75
2019-06-20T20:04:06.601Z,69.30
2019-06-20T20:06:36.418Z,68.82
2019-06-20T20:09:09.205Z,68.98
2019-06-20T20:11:38.848Z,69.21
2019-06-20T20:14:11.413Z,69.61
2019-06-20T20:16:40.759Z,70.05
2019-06-20T20:19:10.453Z,70.01
2019-06-20T20:21:40.728Z,69.39
2019-06-20T20:24:10.333Z,69.48
2019-06-20T20:26:40.006Z,69.66
2019-06-20T20:29:09.772Z,70.17
2019-06-20T20:31:39.374Z,69.76
2019-06-20T20:34:11.823Z,69.75
2019-06-20T20:36:41.307Z,69.59
2019-06-20T20:39:10.962Z,70.27
2019-06-20T20:41:40.654Z,70.80
2019-06-20T20:44:10.238Z,69.83
2019-06-20T20:46:39.946Z,70.03
2019-06-20T20:49:09.549Z,69.53
2019-06-20T20:51:39.154Z,69.51
2019-06-20T20:54:08.787Z,68.96
2019-06-20T20:56:38.393Z,68.42
2019-06-20T20:59:08.082Z,68.35
2019-06-20T21:01:37.591Z,68.44
2019-06-20T21:04:07.195Z,69.11
2019-06-20T21:06:37.308Z,69.38
2019-06-20T21:09:08.581Z,69.77
2019-06-20T21:11:38.166Z,69.32
2019-06-20T21:14:07.871Z,69.40
2019-06-20T21:16:37.459Z,70.47
2019-06-20T21:19:07.395Z,72.17
2019-06-20T21:21:37.377Z,72.78
2019-06-20T21:24:06.980Z,72.60
2019-06-20T21:26:48.793Z,72.65
2019-06-20T21:29:08.127Z,72.19
2019-06-20T21:31:37.832Z,73.62
2019-06-20T21:34:07.348Z,73.05
2019-06-20T21:36:36.883Z,71.57
2019-06-20T21:39:08.931Z,69.81
2019-06-20T21:41:38.446Z,69.39
2019-06-20T21:44:08.439Z,70.10
2019-06-20T21:46:37.993Z,70.03
2019-06-20T21:49:07.642Z,69.90
2019-06-20T21:51:37.334Z,70.28
2019-06-20T21:54:06.995Z,71.95
2019-06-20T21:56:36.504Z,72.36
2019-06-20T21:59:06.605Z,75.20
2019-06-20T22:01:37.166Z,74.89
2019-06-20T22:04:06.820Z,74.58
2019-06-20T22:06:36.532Z,74.37
2019-06-20T22:09:08.817Z,72.96
2019-06-20T22:11:38.404Z,74.45
2019-06-20T22:14:08.020Z,74.56
2019-06-20T22:16:37.675Z,74.69
2019-06-20T22:19:07.747Z,75.45
2019-06-20T22:21:37.791Z,75.38
2019-06-20T22:24:07.493Z,75.65
2019-06-20T22:26:37.020Z,75.91
2019-06-20T22:29:06.618Z,76.08
2019-06-20T22:31:36.226Z,76.94
2019-06-20T22:34:05.892Z,77.09
2019-06-20T22:36:40.321Z,76.68
2019-06-20T22:39:09.474Z,76.62
2019-06-20T22:41:39.026Z,77.29
2019-06-20T22:44:08.867Z,76.77
2019-06-20T22:46:38.375Z,76.50
2019-06-20T22:49:07.995Z,76.46
2019-06-20T22:51:37.591Z,78.71
2019-06-20T22:54:07.491Z,76.76
2019-06-20T22:56:37.005Z,77.04
2019-06-20T22:59:06.613Z,78.04
2019-06-20T23:01:36.132Z,78.62
2019-06-20T23:04:05.715Z,77.66
2019-06-20T23:06:37.069Z,77.48
2019-06-20T23:09:08.460Z,77.40
2019-06-20T23:11:38.042Z,77.20
2019-06-20T23:14:07.692Z,76.68
2019-06-20T23:16:37.232Z,79.09
2019-06-20T23:19:06.982Z,79.47
2019-06-20T23:21:36.694Z,79.79
2019-06-20T23:24:06.354Z,79.69
2019-06-20T23:26:35.952Z,78.72
2019-06-20T23:29:24.149Z,78.31
2019-06-20T23:31:56.523Z,77.61
2019-06-20T23:34:26.198Z,78.65
2019-06-20T23:37:11.415Z,78.97
2019-06-20T23:39:28.443Z,78.68
2019-06-20T23:41:58.091Z,78.84
2019-06-20T23:44:30.891Z,79.73
2019-06-20T23:47:00.441Z,79.62
2019-06-20T23:49:29.949Z,78.78
2019-06-20T23:52:01.316Z,79.22
2019-06-20T23:54:30.858Z,77.67
2019-06-20T23:57:00.367Z,77.04
2019-06-20T23:59:29.901Z,76.93
